sensor_id;sensor_type;location;lat;lon;timestamp;temperature;humidity
4556;DHT22;2290;48.674;9.018;2023-05-24T00:01:30;14.70;99.90
4556;DHT22;2290;48.674;9.018;2023-05-24T00:03:55;14.70;99.90
4556;DHT22;2290;48.674;9.018;2023-05-24T00:06:23;14.80;99.90
4556;DHT22;2290;48.674;9.018;2023-05-24T00:08:51;14.70;99.90
4556;DHT22;2290;48.674;9.018;2023-05-24T00:11:16;14.70;99.90
4556;DHT22;2290;48.674;9.018;2023-05-24T00:13:42;14.70;99.90
4556;DHT22;2290;48.674;9.018;2023-05-24T00:16:07;14.70;99.90
4556;DHT22;2290;48.674;9.018;2023-05-24T00:18:33;14.60;99.90
4556;DHT22;2290;48.674;9.018;2023-05-24T00:20:58;14.60;99.90
4556;DHT22;2290;48.674;9.018;2023-05-24T00:23:25;14.50;99.90
4556;DHT22;2290;48.674;9.018;2023-05-24T00:25:51;14.60;99.90
4556;DHT22;2290;48.674;9.018;2023-05-24T00:28:16;14.50;99.90
4556;DHT22;2290;48.674;9.018;2023-05-24T00:30:42;14.50;99.90
4556;DHT22;2290;48.674;9.018;2023-05-24T00:33:08;14.40;99.90
4556;DHT22;2290;48.674;9.018;2023-05-24T00:35:33;14.30;99.90
4556;DHT22;2290;48.674;9.018;2023-05-24T00:37:59;14.20;99.90
4556;DHT22;2290;48.674;9.018;2023-05-24T00:40:25;14.20;99.90
4556;DHT22;2290;48.674;9.018;2023-05-24T00:42:50;14.20;99.90
4556;DHT22;2290;48.674;9.018;2023-05-24T00:45:16;14.30;99.90
4556;DHT22;2290;48.674;9.018;2023-05-24T00:47:45;14.30;99.90
4556;DHT22;2290;48.674;9.018;2023-05-24T00:50:11;14.40;99.90
4556;DHT22;2290;48.674;9.018;2023-05-24T00:52:40;14.40;99.90
4556;DHT22;2290;48.674;9.018;2023-05-24T00:55:06;14.40;99.90
4556;DHT22;2290;48.674;9.018;2023-05-24T00:57:33;14.40;99.90
4556;DHT22;2290;48.674;9.018;2023-05-24T00:59:59;14.40;99.90
4556;DHT22;2290;48.674;9.018;2023-05-24T01:02:26;14.40;99.90
4556;DHT22;2290;48.674;9.018;2023-05-24T01:04:52;14.30;99.90
4556;DHT22;2290;48.674;9.018;2023-05-24T01:07:25;14.30;99.90
4556;DHT22;2290;48.674;9.018;2023-05-24T01:10:16;14.30;99.90
4556;DHT22;2290;48.674;9.018;2023-05-24T01:15:44;14.20;99.90
4556;DHT22;2290;48.674;9.018;2023-05-24T01:18:19;14.20;99.90
4556;DHT22;2290;48.674;9.018;2023-05-24T01:21:31;14.20;99.90
4556;DHT22;2290;48.674;9.018;2023-05-24T01:26:36;14.20;99.90
4556;DHT22;2290;48.674;9.018;2023-05-24T01:29:04;14.30;99.90
4556;DHT22;2290;48.674;9.018;2023-05-24T01:31:30;14.30;99.90
4556;DHT22;2290;48.674;9.018;2023-05-24T01:33:57;14.30;99.90
4556;DHT22;2290;48.674;9.018;2023-05-24T01:36:24;14.20;99.90
4556;DHT22;2290;48.674;9.018;2023-05-24T01:38:50;14.20;99.90
4556;DHT22;2290;48.674;9.018;2023-05-24T01:41:37;14.30;99.90
4556;DHT22;2290;48.674;9.018;2023-05-24T01:44:26;14.20;99.90
4556;DHT22;2290;48.674;9.018;2023-05-24T01:47:01;14.20;99.90
4556;DHT22;2290;48.674;9.018;2023-05-24T01:49:37;14.30;99.90
4556;DHT22;2290;48.674;9.018;2023-05-24T01:52:11;14.20;99.90
4556;DHT22;2290;48.674;9.018;2023-05-24T01:54:42;14.20;99.90
4556;DHT22;2290;48.674;9.018;2023-05-24T01:57:09;14.20;99.90
4556;DHT22;2290;48.674;9.018;2023-05-24T01:59:36;14.20;99.90
4556;DHT22;2290;48.674;9.018;2023-05-24T02:02:02;14.20;99.90
4556;DHT22;2290;48.674;9.018;2023-05-24T02:04:28;14.20;99.90
4556;DHT22;2290;48.674;9.018;2023-05-24T02:06:54;14.10;99.90
4556;DHT22;2290;48.674;9.018;2023-05-24T02:09:20;14.20;99.90
4556;DHT22;2290;48.674;9.018;2023-05-24T02:11:45;14.20;99.90
4556;DHT22;2290;48.674;9.018;2023-05-24T02:14:11;14.10;99.90
4556;DHT22;2290;48.674;9.018;2023-05-24T02:16:37;14.10;99.90
4556;DHT22;2290;48.674;9.018;2023-05-24T02:19:07;14.10;99.90
4556;DHT22;2290;48.674;9.018;2023-05-24T02:21:33;14.10;99.90
4556;DHT22;2290;48.674;9.018;2023-05-24T02:23:59;14.10;99.90
4556;DHT22;2290;48.674;9.018;2023-05-24T02:26:25;14.10;99.90
4556;DHT22;2290;48.674;9.018;2023-05-24T02:28:50;14.00;99.90
4556;DHT22;2290;48.674;9.018;2023-05-24T02:31:16;13.90;99.90
4556;DHT22;2290;48.674;9.018;2023-05-24T02:33:42;13.90;99.90
4556;DHT22;2290;48.674;9.018;2023-05-24T02:36:08;13.90;99.90
4556;DHT22;2290;48.674;9.018;2023-05-24T02:38:34;14.00;99.90
4556;DHT22;2290;48.674;9.018;2023-05-24T02:41:01;13.90;99.90
4556;DHT22;2290;48.674;9.018;2023-05-24T02:43:27;13.90;99.90
4556;DHT22;2290;48.674;9.018;2023-05-24T02:45:52;13.90;99.90
4556;DHT22;2290;48.674;9.018;2023-05-24T02:48:18;13.80;99.90
4556;DHT22;2290;48.674;9.018;2023-05-24T02:50:43;13.80;99.90
4556;DHT22;2290;48.674;9.018;2023-05-24T02:53:09;13.80;99.90
4556;DHT22;2290;48.674;9.018;2023-05-24T02:55:34;13.70;99.90
4556;DHT22;2290;48.674;9.018;2023-05-24T02:58:01;13.70;99.90
4556;DHT22;2290;48.674;9.018;2023-05-24T03:00:27;13.80;99.90
4556;DHT22;2290;48.674;9.018;2023-05-24T03:02:52;13.70;99.90
4556;DHT22;2290;48.674;9.018;2023-05-24T03:05:21;13.70;99.90
4556;DHT22;2290;48.674;9.018;2023-05-24T03:07:46;13.60;99.90
4556;DHT22;2290;48.674;9.018;2023-05-24T03:10:12;13.60;99.90
4556;DHT22;2290;48.674;9.018;2023-05-24T03:12:37;13.60;99.90
4556;DHT22;2290;48.674;9.018;2023-05-24T03:15:03;13.50;99.90
4556;DHT22;2290;48.674;9.018;2023-05-24T03:17:29;13.50;99.90
4556;DHT22;2290;48.674;9.018;2023-05-24T03:19:54;13.60;99.90
4556;DHT22;2290;48.674;9.018;2023-05-24T03:22:20;13.50;99.90
4556;DHT22;2290;48.674;9.018;2023-05-24T03:24:46;13.60;99.90
4556;DHT22;2290;48.674;9.018;2023-05-24T03:27:11;13.50;99.90
4556;DHT22;2290;48.674;9.018;2023-05-24T03:29:37;13.60;99.90
4556;DHT22;2290;48.674;9.018;2023-05-24T03:32:03;13.60;99.90
4556;DHT22;2290;48.674;9.018;2023-05-24T03:34:28;13.50;99.90
4556;DHT22;2290;48.674;9.018;2023-05-24T03:36:54;13.50;99.90
4556;DHT22;2290;48.674;9.018;2023-05-24T03:39:20;13.50;99.90
4556;DHT22;2290;48.674;9.018;2023-05-24T03:41:45;13.40;99.90
4556;DHT22;2290;48.674;9.018;2023-05-24T03:44:11;13.50;99.90
4556;DHT22;2290;48.674;9.018;2023-05-24T03:46:37;13.50;99.90
4556;DHT22;2290;48.674;9.018;2023-05-24T03:49:02;13.40;99.90
4556;DHT22;2290;48.674;9.018;2023-05-24T03:51:28;13.30;99.90
4556;DHT22;2290;48.674;9.018;2023-05-24T03:53:56;13.30;99.90
4556;DHT22;2290;48.674;9.018;2023-05-24T03:56:23;13.30;99.90
4556;DHT22;2290;48.674;9.018;2023-05-24T03:58:48;13.30;99.90
4556;DHT22;2290;48.674;9.018;2023-05-24T04:01:16;13.30;99.90
4556;DHT22;2290;48.674;9.018;2023-05-24T04:03:43;13.30;99.90
4556;DHT22;2290;48.674;9.018;2023-05-24T04:06:10;13.20;99.90
4556;DHT22;2290;48.674;9.018;2023-05-24T04:08:38;13.10;99.90
4556;DHT22;2290;48.674;9.018;2023-05-24T04:11:05;13.10;99.90
4556;DHT22;2290;48.674;9.018;2023-05-24T04:13:30;13.10;99.90
4556;DHT22;2290;48.674;9.018;2023-05-24T04:15:56;13.10;99.90
4556;DHT22;2290;48.674;9.018;2023-05-24T04:18:22;13.20;99.90
4556;DHT22;2290;48.674;9.018;2023-05-24T04:20:47;13.30;99.90
4556;DHT22;2290;48.674;9.018;2023-05-24T04:23:13;13.30;99.90
4556;DHT22;2290;48.674;9.018;2023-05-24T04:25:38;13.30;99.90
4556;DHT22;2290;48.674;9.018;2023-05-24T04:28:04;13.40;99.90
4556;DHT22;2290;48.674;9.018;2023-05-24T04:30:30;13.40;99.90
4556;DHT22;2290;48.674;9.018;2023-05-24T04:32:56;13.40;99.90
4556;DHT22;2290;48.674;9.018;2023-05-24T04:35:23;13.50;99.90
4556;DHT22;2290;48.674;9.018;2023-05-24T04:37:50;13.40;99.90
4556;DHT22;2290;48.674;9.018;2023-05-24T04:40:15;13.30;99.90
4556;DHT22;2290;48.674;9.018;2023-05-24T04:42:41;13.30;99.90
4556;DHT22;2290;48.674;9.018;2023-05-24T04:45:07;13.30;99.90
4556;DHT22;2290;48.674;9.018;2023-05-24T04:47:33;13.30;99.90
4556;DHT22;2290;48.674;9.018;2023-05-24T04:49:59;13.30;99.90
4556;DHT22;2290;48.674;9.018;2023-05-24T04:52:24;13.40;99.90
4556;DHT22;2290;48.674;9.018;2023-05-24T04:54:50;13.40;99.90
4556;DHT22;2290;48.674;9.018;2023-05-24T04:57:16;13.40;99.90
4556;DHT22;2290;48.674;9.018;2023-05-24T04:59:42;13.40;99.90
4556;DHT22;2290;48.674;9.018;2023-05-24T05:02:07;13.30;99.90
4556;DHT22;2290;48.674;9.018;2023-05-24T05:04:33;13.30;99.90
4556;DHT22;2290;48.674;9.018;2023-05-24T05:06:59;13.40;99.90
4556;DHT22;2290;48.674;9.018;2023-05-24T05:09:24;13.20;99.90
4556;DHT22;2290;48.674;9.018;2023-05-24T05:11:50;13.20;99.90
4556;DHT22;2290;48.674;9.018;2023-05-24T05:14:18;13.20;99.90
4556;DHT22;2290;48.674;9.018;2023-05-24T05:16:44;13.10;99.90
4556;DHT22;2290;48.674;9.018;2023-05-24T05:19:11;13.10;99.90
4556;DHT22;2290;48.674;9.018;2023-05-24T05:21:38;13.20;99.90
4556;DHT22;2290;48.674;9.018;2023-05-24T05:24:08;13.20;99.90
4556;DHT22;2290;48.674;9.018;2023-05-24T05:26:35;13.20;99.90
4556;DHT22;2290;48.674;9.018;2023-05-24T05:29:00;13.20;99.90
4556;DHT22;2290;48.674;9.018;2023-05-24T05:31:26;13.20;99.90
4556;DHT22;2290;48.674;9.018;2023-05-24T05:33:51;13.10;99.90
4556;DHT22;2290;48.674;9.018;2023-05-24T05:36:17;13.20;99.90
4556;DHT22;2290;48.674;9.018;2023-05-24T05:38:43;13.30;99.90
4556;DHT22;2290;48.674;9.018;2023-05-24T05:41:08;13.20;99.90
4556;DHT22;2290;48.674;9.018;2023-05-24T05:43:34;13.10;99.90
4556;DHT22;2290;48.674;9.018;2023-05-24T05:46:01;13.10;99.90
4556;DHT22;2290;48.674;9.018;2023-05-24T05:48:27;13.20;99.90
4556;DHT22;2290;48.674;9.018;2023-05-24T05:50:52;13.20;99.90
4556;DHT22;2290;48.674;9.018;2023-05-24T05:53:18;13.20;99.90
4556;DHT22;2290;48.674;9.018;2023-05-24T05:55:44;13.30;99.90
4556;DHT22;2290;48.674;9.018;2023-05-24T05:58:10;13.30;99.90
4556;DHT22;2290;48.674;9.018;2023-05-24T06:00:37;13.10;99.90
4556;DHT22;2290;48.674;9.018;2023-05-24T06:03:02;13.20;99.90
4556;DHT22;2290;48.674;9.018;2023-05-24T06:05:28;13.20;99.90
4556;DHT22;2290;48.674;9.018;2023-05-24T06:07:53;13.30;99.90
4556;DHT22;2290;48.674;9.018;2023-05-24T06:10:19;13.30;99.90
4556;DHT22;2290;48.674;9.018;2023-05-24T06:12:46;13.50;99.90
4556;DHT22;2290;48.674;9.018;2023-05-24T06:15:12;13.50;99.90
4556;DHT22;2290;48.674;9.018;2023-05-24T06:17:38;13.60;99.90
4556;DHT22;2290;48.674;9.018;2023-05-24T06:20:04;13.70;99.90
4556;DHT22;2290;48.674;9.018;2023-05-24T06:22:42;13.60;99.90
4556;DHT22;2290;48.674;9.018;2023-05-24T06:25:08;13.70;99.90
4556;DHT22;2290;48.674;9.018;2023-05-24T06:27:34;13.80;99.90
4556;DHT22;2290;48.674;9.018;2023-05-24T06:30:00;13.70;99.90
4556;DHT22;2290;48.674;9.018;2023-05-24T06:32:25;13.80;99.90
4556;DHT22;2290;48.674;9.018;2023-05-24T06:34:51;13.70;99.90
4556;DHT22;2290;48.674;9.018;2023-05-24T06:37:16;13.80;99.90
4556;DHT22;2290;48.674;9.018;2023-05-24T06:39:42;13.90;99.90
4556;DHT22;2290;48.674;9.018;2023-05-24T06:42:07;13.90;99.90
4556;DHT22;2290;48.674;9.018;2023-05-24T06:44:34;13.90;99.90
4556;DHT22;2290;48.674;9.018;2023-05-24T06:47:02;13.90;99.90
4556;DHT22;2290;48.674;9.018;2023-05-24T06:49:28;14.00;99.90
4556;DHT22;2290;48.674;9.018;2023-05-24T06:51:54;14.00;99.90
4556;DHT22;2290;48.674;9.018;2023-05-24T06:54:19;14.00;99.90
4556;DHT22;2290;48.674;9.018;2023-05-24T06:56:46;14.00;99.90
4556;DHT22;2290;48.674;9.018;2023-05-24T06:59:12;14.10;99.90
4556;DHT22;2290;48.674;9.018;2023-05-24T07:01:41;14.10;99.90
4556;DHT22;2290;48.674;9.018;2023-05-24T07:04:08;14.10;99.90
4556;DHT22;2290;48.674;9.018;2023-05-24T07:06:35;13.90;99.90
4556;DHT22;2290;48.674;9.018;2023-05-24T07:09:02;13.70;99.90
4556;DHT22;2290;48.674;9.018;2023-05-24T07:11:29;13.80;99.90
4556;DHT22;2290;48.674;9.018;2023-05-24T07:13:55;13.90;99.90
4556;DHT22;2290;48.674;9.018;2023-05-24T07:16:21;13.90;99.90
4556;DHT22;2290;48.674;9.018;2023-05-24T07:18:46;13.90;99.90
4556;DHT22;2290;48.674;9.018;2023-05-24T07:21:12;13.90;99.90
4556;DHT22;2290;48.674;9.018;2023-05-24T07:23:37;13.90;99.90
4556;DHT22;2290;48.674;9.018;2023-05-24T07:26:03;13.80;99.90
4556;DHT22;2290;48.674;9.018;2023-05-24T07:28:29;13.90;99.90
4556;DHT22;2290;48.674;9.018;2023-05-24T07:30:55;13.90;99.90
4556;DHT22;2290;48.674;9.018;2023-05-24T07:33:20;13.90;99.90
4556;DHT22;2290;48.674;9.018;2023-05-24T07:35:46;13.80;99.90
4556;DHT22;2290;48.674;9.018;2023-05-24T07:38:16;13.80;99.90
4556;DHT22;2290;48.674;9.018;2023-05-24T07:40:42;13.90;99.90
4556;DHT22;2290;48.674;9.018;2023-05-24T07:43:08;14.00;99.90
4556;DHT22;2290;48.674;9.018;2023-05-24T07:45:33;13.90;99.90
4556;DHT22;2290;48.674;9.018;2023-05-24T07:47:59;13.90;99.90
4556;DHT22;2290;48.674;9.018;2023-05-24T07:50:25;13.80;99.90
4556;DHT22;2290;48.674;9.018;2023-05-24T07:52:51;13.80;99.90
4556;DHT22;2290;48.674;9.018;2023-05-24T07:55:17;13.80;99.90
4556;DHT22;2290;48.674;9.018;2023-05-24T07:57:42;13.70;99.90
4556;DHT22;2290;48.674;9.018;2023-05-24T08:00:08;13.60;99.90
4556;DHT22;2290;48.674;9.018;2023-05-24T08:02:40;13.70;99.90
4556;DHT22;2290;48.674;9.018;2023-05-24T08:05:06;13.80;99.90
4556;DHT22;2290;48.674;9.018;2023-05-24T08:07:33;13.80;99.90
4556;DHT22;2290;48.674;9.018;2023-05-24T08:09:59;13.80;99.90
4556;DHT22;2290;48.674;9.018;2023-05-24T08:12:25;13.80;99.90
4556;DHT22;2290;48.674;9.018;2023-05-24T08:14:50;13.90;99.90
4556;DHT22;2290;48.674;9.018;2023-05-24T08:17:16;14.00;99.90
4556;DHT22;2290;48.674;9.018;2023-05-24T08:19:42;14.00;99.90
4556;DHT22;2290;48.674;9.018;2023-05-24T08:22:07;14.10;99.90
4556;DHT22;2290;48.674;9.018;2023-05-24T08:24:34;14.10;99.90
4556;DHT22;2290;48.674;9.018;2023-05-24T08:26:59;14.20;99.90
4556;DHT22;2290;48.674;9.018;2023-05-24T08:29:26;14.40;99.90
4556;DHT22;2290;48.674;9.018;2023-05-24T08:31:54;14.40;99.90
4556;DHT22;2290;48.674;9.018;2023-05-24T08:34:20;14.50;99.90
4556;DHT22;2290;48.674;9.018;2023-05-24T08:36:46;14.40;99.90
4556;DHT22;2290;48.674;9.018;2023-05-24T08:39:12;14.40;99.90
4556;DHT22;2290;48.674;9.018;2023-05-24T08:41:39;14.30;99.90
4556;DHT22;2290;48.674;9.018;2023-05-24T08:44:05;14.40;99.90
4556;DHT22;2290;48.674;9.018;2023-05-24T08:46:35;14.50;99.90
4556;DHT22;2290;48.674;9.018;2023-05-24T08:49:02;14.60;99.90
4556;DHT22;2290;48.674;9.018;2023-05-24T08:51:30;14.60;99.90
4556;DHT22;2290;48.674;9.018;2023-05-24T08:53:59;14.60;99.90
4556;DHT22;2290;48.674;9.018;2023-05-24T08:56:26;14.60;99.90
4556;DHT22;2290;48.674;9.018;2023-05-24T08:58:54;14.60;99.90
4556;DHT22;2290;48.674;9.018;2023-05-24T09:01:22;14.60;99.90
4556;DHT22;2290;48.674;9.018;2023-05-24T09:03:49;14.80;99.90
4556;DHT22;2290;48.674;9.018;2023-05-24T09:06:17;15.00;99.90
4556;DHT22;2290;48.674;9.018;2023-05-24T09:08:44;15.00;99.90
4556;DHT22;2290;48.674;9.018;2023-05-24T09:11:11;15.10;99.90
4556;DHT22;2290;48.674;9.018;2023-05-24T09:13:38;15.10;99.90
4556;DHT22;2290;48.674;9.018;2023-05-24T09:16:05;15.20;99.90
4556;DHT22;2290;48.674;9.018;2023-05-24T09:18:30;15.30;99.90
4556;DHT22;2290;48.674;9.018;2023-05-24T09:20:58;15.40;99.90
4556;DHT22;2290;48.674;9.018;2023-05-24T09:23:25;15.40;99.90
4556;DHT22;2290;48.674;9.018;2023-05-24T09:25:51;15.50;99.90
4556;DHT22;2290;48.674;9.018;2023-05-24T09:28:17;15.40;99.90
4556;DHT22;2290;48.674;9.018;2023-05-24T09:30:44;15.30;99.90
4556;DHT22;2290;48.674;9.018;2023-05-24T09:33:11;15.30;99.90
4556;DHT22;2290;48.674;9.018;2023-05-24T09:35:41;15.30;99.90
4556;DHT22;2290;48.674;9.018;2023-05-24T09:38:15;15.40;99.90
4556;DHT22;2290;48.674;9.018;2023-05-24T09:40:43;15.30;99.90
4556;DHT22;2290;48.674;9.018;2023-05-24T09:43:09;15.20;99.90
4556;DHT22;2290;48.674;9.018;2023-05-24T09:45:41;15.30;99.90
4556;DHT22;2290;48.674;9.018;2023-05-24T09:48:15;15.20;99.90
4556;DHT22;2290;48.674;9.018;2023-05-24T09:51:05;15.10;99.90
4556;DHT22;2290;48.674;9.018;2023-05-24T09:53:33;14.90;99.90
4556;DHT22;2290;48.674;9.018;2023-05-24T09:55:59;14.80;99.90
4556;DHT22;2290;48.674;9.018;2023-05-24T09:58:32;14.80;99.90
4556;DHT22;2290;48.674;9.018;2023-05-24T10:01:08;14.70;99.90
4556;DHT22;2290;48.674;9.018;2023-05-24T10:03:35;14.60;99.90
4556;DHT22;2290;48.674;9.018;2023-05-24T10:06:02;14.60;99.90
4556;DHT22;2290;48.674;9.018;2023-05-24T10:08:32;14.60;99.90
4556;DHT22;2290;48.674;9.018;2023-05-24T10:11:01;14.60;99.90
4556;DHT22;2290;48.674;9.018;2023-05-24T10:13:29;14.50;99.90
4556;DHT22;2290;48.674;9.018;2023-05-24T10:15:56;14.60;99.90
4556;DHT22;2290;48.674;9.018;2023-05-24T10:18:22;14.70;99.90
4556;DHT22;2290;48.674;9.018;2023-05-24T10:20:47;14.70;99.90
4556;DHT22;2290;48.674;9.018;2023-05-24T10:23:19;14.80;99.90
4556;DHT22;2290;48.674;9.018;2023-05-24T10:25:55;14.80;99.90
4556;DHT22;2290;48.674;9.018;2023-05-24T10:28:35;14.80;99.90
4556;DHT22;2290;48.674;9.018;2023-05-24T10:31:10;14.90;99.90
4556;DHT22;2290;48.674;9.018;2023-05-24T10:33:37;14.90;99.90
4556;DHT22;2290;48.674;9.018;2023-05-24T10:36:06;14.80;99.90
4556;DHT22;2290;48.674;9.018;2023-05-24T10:38:33;14.70;99.90
4556;DHT22;2290;48.674;9.018;2023-05-24T10:41:01;14.70;99.90
4556;DHT22;2290;48.674;9.018;2023-05-24T10:43:26;14.60;99.90
4556;DHT22;2290;48.674;9.018;2023-05-24T10:45:52;14.50;99.90
4556;DHT22;2290;48.674;9.018;2023-05-24T10:50:52;14.50;99.90
4556;DHT22;2290;48.674;9.018;2023-05-24T10:53:21;14.50;99.90
4556;DHT22;2290;48.674;9.018;2023-05-24T10:56:01;14.50;99.90
4556;DHT22;2290;48.674;9.018;2023-05-24T11:01:26;14.30;99.90
4556;DHT22;2290;48.674;9.018;2023-05-24T11:03:52;14.30;99.90
4556;DHT22;2290;48.674;9.018;2023-05-24T11:06:18;14.30;99.90
4556;DHT22;2290;48.674;9.018;2023-05-24T11:08:44;14.30;99.90
4556;DHT22;2290;48.674;9.018;2023-05-24T11:11:12;14.10;99.90
4556;DHT22;2290;48.674;9.018;2023-05-24T11:13:39;14.10;99.90
4556;DHT22;2290;48.674;9.018;2023-05-24T11:16:05;14.10;99.90
4556;DHT22;2290;48.674;9.018;2023-05-24T11:18:31;14.10;99.90
4556;DHT22;2290;48.674;9.018;2023-05-24T11:21:00;14.10;99.90
4556;DHT22;2290;48.674;9.018;2023-05-24T11:23:29;14.20;99.90
4556;DHT22;2290;48.674;9.018;2023-05-24T11:25:55;14.30;99.90
4556;DHT22;2290;48.674;9.018;2023-05-24T11:28:21;14.30;99.90
4556;DHT22;2290;48.674;9.018;2023-05-24T11:30:47;14.50;99.90
4556;DHT22;2290;48.674;9.018;2023-05-24T11:33:19;14.60;99.90
4556;DHT22;2290;48.674;9.018;2023-05-24T11:35:51;14.70;99.90
4556;DHT22;2290;48.674;9.018;2023-05-24T11:38:18;14.90;99.90
4556;DHT22;2290;48.674;9.018;2023-05-24T11:40:47;15.00;99.90
4556;DHT22;2290;48.674;9.018;2023-05-24T11:43:15;15.20;99.90
4556;DHT22;2290;48.674;9.018;2023-05-24T11:45:42;15.20;99.90
4556;DHT22;2290;48.674;9.018;2023-05-24T11:48:09;15.20;99.90
4556;DHT22;2290;48.674;9.018;2023-05-24T11:50:47;15.40;99.90
4556;DHT22;2290;48.674;9.018;2023-05-24T11:53:18;15.50;99.90
4556;DHT22;2290;48.674;9.018;2023-05-24T11:55:45;15.80;99.90
4556;DHT22;2290;48.674;9.018;2023-05-24T11:58:27;15.90;99.90
4556;DHT22;2290;48.674;9.018;2023-05-24T12:00:54;16.00;99.90
4556;DHT22;2290;48.674;9.018;2023-05-24T12:03:20;16.00;99.90
4556;DHT22;2290;48.674;9.018;2023-05-24T12:05:46;16.20;99.90
4556;DHT22;2290;48.674;9.018;2023-05-24T12:08:12;16.70;99.90
4556;DHT22;2290;48.674;9.018;2023-05-24T12:10:43;16.80;99.90
4556;DHT22;2290;48.674;9.018;2023-05-24T12:13:22;17.10;99.90
4556;DHT22;2290;48.674;9.018;2023-05-24T12:15:52;17.30;99.90
4556;DHT22;2290;48.674;9.018;2023-05-24T12:18:19;17.70;99.90
4556;DHT22;2290;48.674;9.018;2023-05-24T12:20:49;18.10;99.90
4556;DHT22;2290;48.674;9.018;2023-05-24T12:23:17;18.50;99.90
4556;DHT22;2290;48.674;9.018;2023-05-24T12:25:43;18.80;99.90
4556;DHT22;2290;48.674;9.018;2023-05-24T12:28:10;19.00;99.90
4556;DHT22;2290;48.674;9.018;2023-05-24T12:30:37;19.00;99.90
4556;DHT22;2290;48.674;9.018;2023-05-24T12:33:12;18.90;99.60
4556;DHT22;2290;48.674;9.018;2023-05-24T12:35:41;19.10;99.50
4556;DHT22;2290;48.674;9.018;2023-05-24T12:38:08;19.30;99.60
4556;DHT22;2290;48.674;9.018;2023-05-24T12:40:35;19.60;99.20
4556;DHT22;2290;48.674;9.018;2023-05-24T12:43:03;19.90;97.70
4556;DHT22;2290;48.674;9.018;2023-05-24T12:45:31;20.00;97.80
4556;DHT22;2290;48.674;9.018;2023-05-24T12:47:58;19.90;97.70
4556;DHT22;2290;48.674;9.018;2023-05-24T12:50:25;20.00;98.00
4556;DHT22;2290;48.674;9.018;2023-05-24T12:52:52;20.10;96.50
4556;DHT22;2290;48.674;9.018;2023-05-24T12:55:27;20.30;96.50
4556;DHT22;2290;48.674;9.018;2023-05-24T12:57:54;20.40;94.70
4556;DHT22;2290;48.674;9.018;2023-05-24T13:00:28;20.70;93.50
4556;DHT22;2290;48.674;9.018;2023-05-24T13:02:56;21.00;92.50
4556;DHT22;2290;48.674;9.018;2023-05-24T13:05:25;21.10;93.10
4556;DHT22;2290;48.674;9.018;2023-05-24T13:07:54;21.00;93.70
4556;DHT22;2290;48.674;9.018;2023-05-24T13:10:21;21.20;92.70
4556;DHT22;2290;48.674;9.018;2023-05-24T13:12:47;21.20;92.40
4556;DHT22;2290;48.674;9.018;2023-05-24T13:15:13;21.20;92.60
4556;DHT22;2290;48.674;9.018;2023-05-24T13:17:41;21.20;93.60
4556;DHT22;2290;48.674;9.018;2023-05-24T13:20:07;21.40;93.30
4556;DHT22;2290;48.674;9.018;2023-05-24T13:22:36;20.90;92.40
4556;DHT22;2290;48.674;9.018;2023-05-24T13:25:03;20.60;93.10
4556;DHT22;2290;48.674;9.018;2023-05-24T13:27:30;20.70;93.40
4556;DHT22;2290;48.674;9.018;2023-05-24T13:29:57;20.80;93.30
4556;DHT22;2290;48.674;9.018;2023-05-24T13:32:24;20.60;92.40
4556;DHT22;2290;48.674;9.018;2023-05-24T13:34:52;20.40;92.90
4556;DHT22;2290;48.674;9.018;2023-05-24T13:37:17;20.30;92.40
4556;DHT22;2290;48.674;9.018;2023-05-24T13:39:44;20.20;93.00
4556;DHT22;2290;48.674;9.018;2023-05-24T13:42:10;20.30;93.80
4556;DHT22;2290;48.674;9.018;2023-05-24T13:44:36;20.60;93.20
4556;DHT22;2290;48.674;9.018;2023-05-24T13:47:03;20.90;92.80
4556;DHT22;2290;48.674;9.018;2023-05-24T13:49:31;21.10;93.10
4556;DHT22;2290;48.674;9.018;2023-05-24T13:51:59;21.20;93.70
4556;DHT22;2290;48.674;9.018;2023-05-24T13:54:26;21.10;92.70
4556;DHT22;2290;48.674;9.018;2023-05-24T13:56:52;21.10;92.90
4556;DHT22;2290;48.674;9.018;2023-05-24T13:59:22;21.10;93.10
4556;DHT22;2290;48.674;9.018;2023-05-24T14:01:48;20.80;93.10
4556;DHT22;2290;48.674;9.018;2023-05-24T14:04:16;21.00;93.50
4556;DHT22;2290;48.674;9.018;2023-05-24T14:06:42;21.10;92.10
4556;DHT22;2290;48.674;9.018;2023-05-24T14:09:09;21.30;91.60
4556;DHT22;2290;48.674;9.018;2023-05-24T14:11:35;21.30;92.40
4556;DHT22;2290;48.674;9.018;2023-05-24T14:14:02;21.40;91.90
4556;DHT22;2290;48.674;9.018;2023-05-24T14:16:29;21.40;92.80
4556;DHT22;2290;48.674;9.018;2023-05-24T14:18:56;21.40;92.70
4556;DHT22;2290;48.674;9.018;2023-05-24T14:21:22;21.30;92.70
4556;DHT22;2290;48.674;9.018;2023-05-24T14:23:50;21.20;92.30
4556;DHT22;2290;48.674;9.018;2023-05-24T14:26:18;21.40;92.30
4556;DHT22;2290;48.674;9.018;2023-05-24T14:28:44;21.60;91.80
4556;DHT22;2290;48.674;9.018;2023-05-24T14:31:10;21.70;91.90
4556;DHT22;2290;48.674;9.018;2023-05-24T14:33:37;21.80;91.30
4556;DHT22;2290;48.674;9.018;2023-05-24T14:36:03;21.90;91.80
4556;DHT22;2290;48.674;9.018;2023-05-24T14:38:32;22.00;91.90
4556;DHT22;2290;48.674;9.018;2023-05-24T14:40:58;21.70;91.80
4556;DHT22;2290;48.674;9.018;2023-05-24T14:43:25;21.90;93.20
4556;DHT22;2290;48.674;9.018;2023-05-24T14:45:52;22.00;92.10
4556;DHT22;2290;48.674;9.018;2023-05-24T14:48:18;21.80;91.60
4556;DHT22;2290;48.674;9.018;2023-05-24T14:50:43;21.30;92.40
4556;DHT22;2290;48.674;9.018;2023-05-24T14:53:09;21.10;92.70
4556;DHT22;2290;48.674;9.018;2023-05-24T14:55:40;21.20;92.70
4556;DHT22;2290;48.674;9.018;2023-05-24T14:58:06;21.10;92.10
4556;DHT22;2290;48.674;9.018;2023-05-24T15:00:38;20.90;92.20
4556;DHT22;2290;48.674;9.018;2023-05-24T15:03:04;20.60;92.90
4556;DHT22;2290;48.674;9.018;2023-05-24T15:05:35;20.30;92.30
4556;DHT22;2290;48.674;9.018;2023-05-24T15:08:02;20.10;92.90
4556;DHT22;2290;48.674;9.018;2023-05-24T15:10:28;19.90;92.50
4556;DHT22;2290;48.674;9.018;2023-05-24T15:12:54;19.80;92.30
4556;DHT22;2290;48.674;9.018;2023-05-24T15:15:21;19.70;92.60
4556;DHT22;2290;48.674;9.018;2023-05-24T15:17:47;19.70;92.10
4556;DHT22;2290;48.674;9.018;2023-05-24T15:20:14;20.00;92.20
4556;DHT22;2290;48.674;9.018;2023-05-24T15:22:41;20.30;92.90
4556;DHT22;2290;48.674;9.018;2023-05-24T15:25:07;20.60;91.50
4556;DHT22;2290;48.674;9.018;2023-05-24T15:27:32;21.00;92.10
4556;DHT22;2290;48.674;9.018;2023-05-24T15:29:58;21.20;91.90
4556;DHT22;2290;48.674;9.018;2023-05-24T15:32:24;21.10;92.00
4556;DHT22;2290;48.674;9.018;2023-05-24T15:34:50;21.10;92.30
4556;DHT22;2290;48.674;9.018;2023-05-24T15:37:16;20.80;92.20
4556;DHT22;2290;48.674;9.018;2023-05-24T15:39:46;20.70;91.90
4556;DHT22;2290;48.674;9.018;2023-05-24T15:42:13;20.50;91.70
4556;DHT22;2290;48.674;9.018;2023-05-24T15:44:38;20.40;92.20
4556;DHT22;2290;48.674;9.018;2023-05-24T15:47:04;20.40;92.10
4556;DHT22;2290;48.674;9.018;2023-05-24T15:49:31;20.50;91.60
4556;DHT22;2290;48.674;9.018;2023-05-24T15:51:57;20.30;91.40
4556;DHT22;2290;48.674;9.018;2023-05-24T15:54:22;20.20;92.60
4556;DHT22;2290;48.674;9.018;2023-05-24T15:56:48;20.20;91.70
4556;DHT22;2290;48.674;9.018;2023-05-24T15:59:14;20.10;91.30
4556;DHT22;2290;48.674;9.018;2023-05-24T16:01:43;20.10;91.10
4556;DHT22;2290;48.674;9.018;2023-05-24T16:04:08;20.20;91.10
4556;DHT22;2290;48.674;9.018;2023-05-24T16:06:34;20.20;91.20
4556;DHT22;2290;48.674;9.018;2023-05-24T16:09:01;20.60;91.00
4556;DHT22;2290;48.674;9.018;2023-05-24T16:11:27;20.90;91.40
4556;DHT22;2290;48.674;9.018;2023-05-24T16:13:52;21.10;91.00